PWSweather.com
Personal Weather Stations
Station Observations
MARICOPA
Cobblestone Farms, Maricopa, AZ 85139

Cobblestone FarmsMaricopa, AZ 85139

Lat: 33.076, Lon: -112.0445

Elevation: 1148

Station Type: LaCrosse 2310/15

http://weather.azkiwis.net

Latest ConditionsUpdated 4:45:09 PM MST Tuesday, Mar 31, 2015
Currently Today's Max Today's Min Today's Average
Temperature 96.3°F35.7°C 98.4°F36.9°C 59.0°F15.0°C 76.2°F24.6°C
Dew Point 39.3°F4.1°C 42.7°F5.9°C 31.2°F-0.4°C 37.4°F3.0°C
Winds Calm Calm Calm WSWCalm WSW - Calm Calm
Wind Gusts -- -- - -
Humidity 14% 42% 12% 27%
Pressure 29.79 in1008.8 mb 29.98 in1015.2 mb 29.79 in1008.8 mb -
Hour Temp Dew Point Humidity Winds Wind Gusts Pressure Precip Precip Rate Daily Precip Total
04:45 PM 96.3°F35.7°C 39.3°F4.1°C 14% Calm Calm -- 29.79 in1008.8 mb - 0.00 in0.0 mm 0.00 in0.0 mm
04:30 PM 97.4°F36.3°C 40.2°F4.6°C 14% Calm Calm -- 29.80 in1009.1 mb - 0.00 in0.0 mm 0.00 in0.0 mm
04:15 PM 98.0°F36.7°C 38.8°F3.8°C 13% Calm Calm -- 29.80 in1009.1 mb - 0.00 in0.0 mm 0.00 in0.0 mm
04:00 PM 97.9°F36.6°C 38.7°F3.7°C 13% Calm Calm -- 29.81 in1009.5 mb - 0.00 in0.0 mm 0.00 in0.0 mm
03:45 PM 98.4°F36.9°C 39.1°F3.9°C 13% Calm Calm -- 29.81 in1009.5 mb - 0.00 in0.0 mm 0.00 in0.0 mm
03:30 PM 98.4°F36.9°C 37.1°F2.8°C 12% Calm Calm -- 29.82 in1009.8 mb - 0.00 in0.0 mm 0.00 in0.0 mm
03:15 PM 97.9°F36.6°C 40.6°F4.8°C 14% Calm Calm -- 29.83 in1010.2 mb - 0.00 in0.0 mm 0.00 in0.0 mm
03:00 PM 97.5°F36.4°C 36.4°F2.4°C 12% Calm Calm -- 29.84 in1010.5 mb - 0.00 in0.0 mm 0.00 in0.0 mm
02:45 PM 96.8°F36.0°C 37.8°F3.2°C 13% Calm Calm -- 29.84 in1010.5 mb - 0.00 in0.0 mm 0.00 in0.0 mm
02:30 PM 96.3°F35.7°C 37.5°F3.1°C 13% Calm Calm -- 29.86 in1011.2 mb - 0.00 in0.0 mm 0.00 in0.0 mm
02:15 PM 96.4°F35.8°C 37.6°F3.1°C 13% Calm Calm -- 29.87 in1011.5 mb - 0.00 in0.0 mm 0.00 in0.0 mm
02:00 PM 96.1°F35.6°C 39.2°F4.0°C 14% Calm Calm -- 29.89 in1012.2 mb - 0.00 in0.0 mm 0.00 in0.0 mm
01:45 PM 95.7°F35.4°C 38.9°F3.8°C 14% Calm Calm -- 29.89 in1012.2 mb - 0.00 in0.0 mm 0.00 in0.0 mm
01:30 PM 95.7°F35.4°C 40.7°F4.8°C 15% Calm Calm -- 29.90 in1012.5 mb - 0.00 in0.0 mm 0.00 in0.0 mm
01:15 PM 95.3°F35.2°C 40.3°F4.6°C 15% Calm Calm -- 29.91 in1012.9 mb - 0.00 in0.0 mm 0.00 in0.0 mm
01:00 PM 94.6°F34.8°C 41.5°F5.3°C 16% Calm Calm -- 29.92 in1013.2 mb - 0.00 in0.0 mm 0.00 in0.0 mm
12:45 PM 93.1°F33.9°C 40.2°F4.6°C 16% Calm Calm -- 29.93 in1013.5 mb - 0.00 in0.0 mm 0.00 in0.0 mm
12:30 PM 92.0°F33.3°C 40.9°F4.9°C 17% Calm Calm -- 29.94 in1013.9 mb - 0.00 in0.0 mm 0.00 in0.0 mm
12:15 PM 91.6°F33.1°C 39.0°F3.9°C 16% Calm Calm -- 29.94 in1013.9 mb - 0.00 in0.0 mm 0.00 in0.0 mm
12:00 PM 90.7°F32.6°C 39.9°F4.4°C 17% Calm Calm -- 29.95 in1014.2 mb - 0.00 in0.0 mm 0.00 in0.0 mm
11:45 AM 89.1°F31.7°C 41.4°F5.2°C 19% Calm Calm -- 29.97 in1014.9 mb - 0.00 in0.0 mm 0.00 in0.0 mm
11:30 AM 88.0°F31.1°C 39.2°F4.0°C 18% Calm Calm -- 29.97 in1014.9 mb - 0.00 in0.0 mm 0.00 in0.0 mm
11:15 AM 86.6°F30.3°C 40.7°F4.8°C 20% Calm Calm -- 29.97 in1014.9 mb - 0.00 in0.0 mm 0.00 in0.0 mm
11:00 AM 85.3°F29.6°C 42.1°F5.6°C 22% Calm Calm -- 29.97 in1014.9 mb - 0.00 in0.0 mm 0.00 in0.0 mm
10:45 AM 84.1°F28.9°C 42.3°F5.7°C 23% Calm Calm -- 29.97 in1014.9 mb - 0.00 in0.0 mm 0.00 in0.0 mm
10:30 AM 82.6°F28.1°C 41.0°F5.0°C 23% Calm Calm -- 29.98 in1015.2 mb - 0.00 in0.0 mm 0.00 in0.0 mm
10:15 AM 80.4°F26.9°C 41.4°F5.2°C 25% Calm Calm -- 29.97 in1014.9 mb - 0.00 in0.0 mm 0.00 in0.0 mm
10:00 AM 78.4°F25.8°C 40.6°F4.8°C 26% Calm Calm -- 29.97 in1014.9 mb - 0.00 in0.0 mm 0.00 in0.0 mm
09:45 AM 76.0°F24.4°C 41.5°F5.3°C 29% Calm Calm -- 29.97 in1014.9 mb - 0.00 in0.0 mm 0.00 in0.0 mm
09:30 AM 73.6°F23.1°C 42.7°F5.9°C 33% Calm Calm -- 29.97 in1014.9 mb - 0.00 in0.0 mm 0.00 in0.0 mm
09:15 AM 71.2°F21.8°C 42.1°F5.6°C 35% Calm Calm -- 29.96 in1014.6 mb - 0.00 in0.0 mm 0.00 in0.0 mm
09:00 AM 69.1°F20.6°C 42.4°F5.8°C 38% Calm Calm -- 29.97 in1014.9 mb - 0.00 in0.0 mm 0.00 in0.0 mm
08:45 AM 67.3°F19.6°C 42.1°F5.6°C 40% Calm Calm -- 29.96 in1014.6 mb - 0.00 in0.0 mm 0.00 in0.0 mm
08:30 AM 65.6°F18.7°C 40.0°F4.4°C 39% Calm Calm -- 29.96 in1014.6 mb - 0.00 in0.0 mm 0.00 in0.0 mm
08:15 AM 64.2°F17.9°C 39.4°F4.1°C 40% Calm Calm -- 29.96 in1014.6 mb - 0.00 in0.0 mm 0.00 in0.0 mm
08:00 AM 62.9°F17.2°C 38.2°F3.4°C 40% Calm Calm -- 29.96 in1014.6 mb - 0.00 in0.0 mm 0.00 in0.0 mm
07:45 AM 61.5°F16.4°C 37.0°F2.8°C 40% Calm Calm -- 29.95 in1014.2 mb - 0.00 in0.0 mm 0.00 in0.0 mm
07:30 AM 60.4°F15.8°C 36.0°F2.2°C 40% Calm Calm -- 29.95 in1014.2 mb - 0.00 in0.0 mm 0.00 in0.0 mm
07:15 AM 59.7°F15.4°C 36.6°F2.6°C 42% Calm Calm -- 29.95 in1014.2 mb - 0.00 in0.0 mm 0.00 in0.0 mm
07:00 AM 59.2°F15.1°C 36.1°F2.3°C 42% Calm Calm -- 29.94 in1013.9 mb - 0.00 in0.0 mm 0.00 in0.0 mm
06:45 AM 59.0°F15.0°C 35.9°F2.2°C 42% Calm Calm -- 29.94 in1013.9 mb - 0.00 in0.0 mm 0.00 in0.0 mm
06:30 AM 59.4°F15.2°C 36.2°F2.3°C 42% Calm Calm -- 29.93 in1013.5 mb - 0.00 in0.0 mm 0.00 in0.0 mm
06:15 AM 59.7°F15.4°C 36.6°F2.6°C 42% Calm Calm -- 29.93 in1013.5 mb - 0.00 in0.0 mm 0.00 in0.0 mm
06:00 AM 60.3°F15.7°C 35.8°F2.1°C 40% Calm Calm -- 29.92 in1013.2 mb - 0.00 in0.0 mm 0.00 in0.0 mm
05:45 AM 60.6°F15.9°C 35.5°F1.9°C 39% Calm Calm -- 29.92 in1013.2 mb - 0.00 in0.0 mm 0.00 in0.0 mm
05:30 AM 61.0°F16.1°C 35.2°F1.8°C 38% Calm Calm -- 29.92 in1013.2 mb - 0.00 in0.0 mm 0.00 in0.0 mm
05:15 AM 61.3°F16.3°C 35.5°F1.9°C 38% Calm Calm -- 29.91 in1012.9 mb - 0.00 in0.0 mm 0.00 in0.0 mm
05:00 AM 61.5°F16.4°C 35.7°F2.1°C 38% Calm Calm -- 29.91 in1012.9 mb - 0.00 in0.0 mm 0.00 in0.0 mm
04:45 AM 61.9°F16.6°C 35.3°F1.8°C 37% Calm Calm -- 29.92 in1013.2 mb - 0.00 in0.0 mm 0.00 in0.0 mm
04:30 AM 61.9°F16.6°C 34.6°F1.4°C 36% Calm Calm -- 29.91 in1012.9 mb - 0.00 in0.0 mm 0.00 in0.0 mm
04:15 AM 61.9°F16.6°C 33.2°F0.7°C 34% Calm Calm -- 29.91 in1012.9 mb - 0.00 in0.0 mm 0.00 in0.0 mm
04:00 AM 62.2°F16.8°C 32.8°F0.4°C 33% Calm Calm -- 29.91 in1012.9 mb - 0.00 in0.0 mm 0.00 in0.0 mm
03:45 AM 62.6°F17.0°C 32.3°F0.2°C 32% Calm Calm -- 29.91 in1012.9 mb - 0.00 in0.0 mm 0.00 in0.0 mm
03:30 AM 63.3°F17.4°C 32.1°F0.1°C 31% Calm Calm -- 29.91 in1012.9 mb - 0.00 in0.0 mm 0.00 in0.0 mm
03:15 AM 64.4°F18.0°C 32.3°F0.2°C 30% Calm Calm -- 29.91 in1012.9 mb - 0.00 in0.0 mm 0.00 in0.0 mm
03:00 AM 65.5°F18.6°C 32.4°F0.2°C 29% Calm Calm -- 29.91 in1012.9 mb - 0.00 in0.0 mm 0.00 in0.0 mm
02:45 AM 66.2°F19.0°C 31.2°F-0.4°C 27% Calm Calm -- 29.91 in1012.9 mb - 0.00 in0.0 mm 0.00 in0.0 mm
02:30 AM 66.9°F19.4°C 31.8°F-0.1°C 27% Calm Calm -- 29.91 in1012.9 mb - 0.00 in0.0 mm 0.00 in0.0 mm
02:15 AM 67.6°F19.8°C 31.5°F-0.3°C 26% Calm Calm -- 29.92 in1013.2 mb - 0.00 in0.0 mm 0.00 in0.0 mm
02:00 AM 68.0°F20.0°C 31.8°F-0.1°C 26% Calm Calm -- 29.92 in1013.2 mb - 0.00 in0.0 mm 0.00 in0.0 mm
01:45 AM 68.0°F20.0°C 32.7°F0.4°C 27% Calm Calm -- 29.92 in1013.2 mb - 0.00 in0.0 mm 0.00 in0.0 mm
01:30 AM 67.6°F19.8°C 33.3°F0.7°C 28% Calm Calm -- 29.92 in1013.2 mb - 0.00 in0.0 mm 0.00 in0.0 mm
01:15 AM 67.6°F19.8°C 34.2°F1.2°C 29% Calm Calm -- 29.92 in1013.2 mb - 0.00 in0.0 mm 0.00 in0.0 mm
01:00 AM 67.7°F19.8°C 35.1°F1.7°C 30% Calm Calm -- 29.93 in1013.5 mb - 0.00 in0.0 mm 0.00 in0.0 mm
12:45 AM 67.8°F19.9°C 35.2°F1.8°C 30% Calm Calm -- 29.92 in1013.2 mb - 0.00 in0.0 mm 0.00 in0.0 mm
12:30 AM 68.0°F20.0°C 35.4°F1.9°C 30% Calm Calm -- 29.92 in1013.2 mb - 0.00 in0.0 mm 0.00 in0.0 mm
12:15 AM 68.5°F20.3°C 35.9°F2.2°C 30% Calm Calm -- 29.92 in1013.2 mb - 0.00 in0.0 mm 0.00 in0.0 mm
12:00 AM 69.1°F20.6°C 36.3°F2.4°C 30% Calm Calm -- 29.92 in1013.2 mb - 0.00 in0.0 mm 0.00 in0.0 mm